createdAt,value
2018-11-27T00:02:25.113Z,3.16
2018-11-27T00:05:31.857Z,3.06
2018-11-27T00:08:37.427Z,3.09
2018-11-27T00:11:42.980Z,2.99
2018-11-27T00:14:48.635Z,2.98
2018-11-27T00:17:54.127Z,2.99
2018-11-27T00:20:59.532Z,2.98
2018-11-27T00:24:04.989Z,2.98
2018-11-27T00:27:10.435Z,2.92
2018-11-27T00:30:19.352Z,2.91
2018-11-27T00:33:24.924Z,2.90
2018-11-27T00:36:30.368Z,2.91
2018-11-27T00:39:35.796Z,2.86
2018-11-27T00:42:41.200Z,2.85
2018-11-27T00:45:46.596Z,2.63
2018-11-27T00:48:51.967Z,2.61
2018-11-27T00:51:57.500Z,2.71
2018-11-27T00:55:02.845Z,2.70
2018-11-27T00:58:08.296Z,2.68
2018-11-27T01:01:13.728Z,2.66
2018-11-27T01:04:19.224Z,2.66
2018-11-27T01:07:24.641Z,2.67
2018-11-27T01:10:30.068Z,2.69
2018-11-27T01:13:35.749Z,2.67
2018-11-27T01:16:41.174Z,2.71
2018-11-27T01:19:46.553Z,2.68
2018-11-27T01:22:52.045Z,2.72
2018-11-27T01:25:57.431Z,2.73
2018-11-27T01:29:02.799Z,2.71
2018-11-27T01:32:08.308Z,2.71
2018-11-27T01:35:25.269Z,2.72
2018-11-27T01:38:30.636Z,2.52
2018-11-27T01:41:36.464Z,2.55
2018-11-27T01:44:41.911Z,2.58
2018-11-27T01:47:47.869Z,2.47
2018-11-27T01:50:53.292Z,2.54
2018-11-27T01:53:58.716Z,2.62
2018-11-27T01:57:04.088Z,2.59
2018-11-27T02:00:16.053Z,2.63
2018-11-27T02:03:21.580Z,2.53
2018-11-27T02:06:26.988Z,2.50
2018-11-27T02:09:32.385Z,2.53
2018-11-27T02:12:38.620Z,2.60
2018-11-27T02:15:44.316Z,2.57
2018-11-27T02:18:49.833Z,2.57
2018-11-27T02:21:55.364Z,2.57
2018-11-27T02:25:00.772Z,2.45
2018-11-27T02:28:06.789Z,2.51
2018-11-27T02:31:12.177Z,2.66
2018-11-27T02:34:17.595Z,2.75
2018-11-27T02:37:23.636Z,2.85
2018-11-27T02:40:29.359Z,2.85
2018-11-27T02:43:34.779Z,2.82
2018-11-27T02:46:40.185Z,2.91
2018-11-27T02:49:45.652Z,2.85
2018-11-27T02:52:51.181Z,2.82
2018-11-27T02:55:56.640Z,2.83
2018-11-27T02:59:01.988Z,2.89
2018-11-27T03:02:07.464Z,2.84
2018-11-27T03:05:31.655Z,2.84
2018-11-27T03:08:37.050Z,2.96
2018-11-27T03:11:42.501Z,2.92
2018-11-27T03:14:47.880Z,2.96
2018-11-27T03:17:53.675Z,2.94
2018-11-27T03:20:59.198Z,2.83
2018-11-27T03:24:04.556Z,2.85
2018-11-27T03:27:10.009Z,2.83
2018-11-27T03:30:22.733Z,2.89
2018-11-27T03:33:28.253Z,2.90
2018-11-27T03:36:33.904Z,2.93
2018-11-27T03:39:39.356Z,2.95
2018-11-27T03:42:44.794Z,2.95
2018-11-27T03:45:50.208Z,2.96
2018-11-27T03:48:55.580Z,2.99
2018-11-27T03:52:03.163Z,3.09
2018-11-27T03:55:10.152Z,3.17
2018-11-27T03:58:15.524Z,3.13
2018-11-27T04:01:21.027Z,3.11
2018-11-27T04:04:26.383Z,3.04
2018-11-27T04:07:31.912Z,3.07
2018-11-27T04:10:38.254Z,3.13
2018-11-27T04:13:43.796Z,3.15
2018-11-27T04:16:49.261Z,3.15
2018-11-27T04:19:54.601Z,3.12
2018-11-27T04:23:00.143Z,3.10
2018-11-27T04:26:05.897Z,3.19
2018-11-27T04:29:11.233Z,3.09
2018-11-27T04:32:16.631Z,3.21
2018-11-27T04:35:22.881Z,3.17
2018-11-27T04:38:28.245Z,3.20
2018-11-27T04:41:33.698Z,3.19
2018-11-27T04:44:39.083Z,3.12
2018-11-27T04:47:44.493Z,3.20
2018-11-27T04:50:49.932Z,3.12
2018-11-27T04:53:55.429Z,3.12
2018-11-27T04:57:00.786Z,3.14
2018-11-27T05:00:16.084Z,3.04
2018-11-27T05:03:21.557Z,3.06
2018-11-27T05:06:26.973Z,3.03
2018-11-27T05:09:32.576Z,2.96
2018-11-27T05:12:39.305Z,2.99
2018-11-27T05:15:44.664Z,2.89
2018-11-27T05:18:50.100Z,2.99
2018-11-27T05:21:55.687Z,2.99
2018-11-27T05:25:01.098Z,2.94
2018-11-27T05:28:06.753Z,3.01
2018-11-27T05:31:12.269Z,3.09
2018-11-27T05:34:17.652Z,3.05
2018-11-27T05:37:23.011Z,3.03
2018-11-27T05:40:28.375Z,2.97
2018-11-27T05:43:33.995Z,3.04
2018-11-27T05:46:40.008Z,3.17
2018-11-27T05:49:45.384Z,3.14
2018-11-27T05:52:50.876Z,3.21
2018-11-27T05:55:56.664Z,3.21
2018-11-27T05:59:02.083Z,3.34
2018-11-27T06:02:07.693Z,3.34
2018-11-27T06:05:20.139Z,3.33
2018-11-27T06:08:25.581Z,3.16
2018-11-27T06:11:31.129Z,3.20
2018-11-27T06:14:36.573Z,3.19
2018-11-27T06:17:42.410Z,3.24
2018-11-27T06:20:47.780Z,3.21
2018-11-27T06:23:53.508Z,3.22
2018-11-27T06:26:58.959Z,3.26
2018-11-27T06:30:06.792Z,3.21
2018-11-27T06:33:12.353Z,3.15
2018-11-27T06:36:17.772Z,3.03
2018-11-27T06:39:23.132Z,3.13
2018-11-27T06:42:28.666Z,3.06
2018-11-27T06:45:34.137Z,3.12
2018-11-27T06:48:39.520Z,3.03
2018-11-27T06:51:45.000Z,3.15
2018-11-27T06:54:50.475Z,3.21
2018-11-27T06:57:55.884Z,3.20
2018-11-27T07:01:01.382Z,3.05
2018-11-27T07:04:07.395Z,3.11
2018-11-27T07:07:12.862Z,3.18
2018-11-27T07:10:25.729Z,3.24
2018-11-27T07:13:31.264Z,3.23
2018-11-27T07:16:36.656Z,3.22
2018-11-27T07:19:42.089Z,3.29
2018-11-27T07:22:47.545Z,3.27
2018-11-27T07:25:52.952Z,3.31
2018-11-27T07:28:58.998Z,3.36
2018-11-27T07:32:09.459Z,3.36
2018-11-27T07:35:14.158Z,3.27
2018-11-27T07:38:19.620Z,3.40
2018-11-27T07:41:25.116Z,3.42
2018-11-27T07:44:30.469Z,3.47
2018-11-27T07:47:35.836Z,3.43
2018-11-27T07:50:41.280Z,3.36
2018-11-27T07:53:46.786Z,3.29
2018-11-27T07:56:52.260Z,3.45
2018-11-27T07:59:57.591Z,3.62
2018-11-27T08:03:03.972Z,3.52
2018-11-27T08:06:09.448Z,3.58
2018-11-27T08:09:14.804Z,3.39
2018-11-27T08:12:20.329Z,3.60
2018-11-27T08:15:29.706Z,3.71
2018-11-27T08:18:35.238Z,3.62
2018-11-27T08:21:40.732Z,3.67
2018-11-27T08:24:47.257Z,3.76
2018-11-27T08:27:51.779Z,3.63
2018-11-27T08:30:57.645Z,3.78
2018-11-27T08:34:03.065Z,3.84
2018-11-27T08:37:08.531Z,3.72
2018-11-27T08:40:16.513Z,3.85
2018-11-27T08:43:21.913Z,3.77
2018-11-27T08:46:27.423Z,3.76
2018-11-27T08:49:32.844Z,3.66
2018-11-27T08:52:39.561Z,3.86
2018-11-27T08:55:45.156Z,3.86
2018-11-27T08:58:50.587Z,3.97
2018-11-27T09:01:56.129Z,4.02
2018-11-27T09:05:01.552Z,4.00
2018-11-27T09:08:07.768Z,4.05
2018-11-27T09:11:13.564Z,3.95
2018-11-27T09:14:19.050Z,4.05
2018-11-27T09:17:24.516Z,4.20
2018-11-27T09:20:29.920Z,4.26
2018-11-27T09:23:35.917Z,4.15
2018-11-27T09:26:41.312Z,4.14
2018-11-27T09:29:46.782Z,3.98
2018-11-27T09:32:52.574Z,4.06
2018-11-27T09:35:57.969Z,4.13
2018-11-27T09:39:03.813Z,4.16
2018-11-27T09:42:09.300Z,4.20
2018-11-27T09:45:21.394Z,4.23
2018-11-27T09:48:26.949Z,4.10
2018-11-27T09:51:32.379Z,4.29
2018-11-27T09:54:37.736Z,4.25
2018-11-27T09:57:43.191Z,4.15
2018-11-27T10:00:48.665Z,4.15
2018-11-27T10:03:55.419Z,4.33
2018-11-27T10:06:59.536Z,4.34
2018-11-27T10:10:06.563Z,4.41
2018-11-27T10:13:11.999Z,4.52
2018-11-27T10:16:17.416Z,4.33
2018-11-27T10:19:26.712Z,4.50
2018-11-27T10:22:28.249Z,4.42
2018-11-27T10:25:33.669Z,4.36
2018-11-27T10:28:39.144Z,4.55
2018-11-27T10:31:44.540Z,4.71
2018-11-27T10:34:50.016Z,4.72
2018-11-27T10:37:55.457Z,4.81
2018-11-27T10:41:01.013Z,4.73
2018-11-27T10:44:06.827Z,4.74
2018-11-27T10:47:12.173Z,4.82
2018-11-27T10:50:18.538Z,4.83
2018-11-27T10:53:24.357Z,4.85
2018-11-27T10:56:29.728Z,4.81
2018-11-27T10:59:35.136Z,4.82
2018-11-27T11:02:40.600Z,4.89
2018-11-27T11:05:46.036Z,4.95
2018-11-27T11:08:51.439Z,5.04
2018-11-27T11:11:59.238Z,5.17
2018-11-27T11:15:02.665Z,5.12
2018-11-27T11:18:08.117Z,5.17
2018-11-27T11:21:13.719Z,5.06
2018-11-27T11:24:19.144Z,4.97
2018-11-27T11:27:24.566Z,4.94
2018-11-27T11:30:35.285Z,4.64
2018-11-27T11:33:40.644Z,4.77
2018-11-27T11:36:46.057Z,4.62
2018-11-27T11:39:51.505Z,4.83
2018-11-27T11:42:58.135Z,5.14
2018-11-27T11:46:03.913Z,5.63
2018-11-27T11:49:09.392Z,6.01
2018-11-27T11:52:14.808Z,6.14
2018-11-27T11:55:21.244Z,6.33
2018-11-27T11:58:26.580Z,6.28
2018-11-27T12:01:32.027Z,6.43
2018-11-27T12:04:37.456Z,6.47
2018-11-27T12:07:42.872Z,6.57
2018-11-27T12:10:48.240Z,6.31
2018-11-27T12:13:53.655Z,6.43
2018-11-27T12:16:59.040Z,6.53
2018-11-27T12:20:04.429Z,6.95
2018-11-27T12:23:11.580Z,7.27
2018-11-27T12:26:17.031Z,7.40
2018-11-27T12:29:22.424Z,7.54
2018-11-27T12:32:27.900Z,7.58
2018-11-27T12:35:33.369Z,7.45
2018-11-27T12:38:38.947Z,6.68
2018-11-27T12:41:44.403Z,6.63
2018-11-27T12:44:49.816Z,6.14
2018-11-27T12:47:56.524Z,5.97
2018-11-27T12:51:01.964Z,6.10
2018-11-27T12:54:07.804Z,5.51
2018-11-27T12:57:13.332Z,5.63
2018-11-27T13:00:22.639Z,5.23
2018-11-27T13:03:28.049Z,5.17
2018-11-27T13:06:33.724Z,5.02
2018-11-27T13:09:39.084Z,5.14
2018-11-27T13:12:49.024Z,5.40
2018-11-27T13:15:54.444Z,5.36
2018-11-27T13:18:59.811Z,5.44
2018-11-27T13:22:05.953Z,5.52
2018-11-27T13:25:15.845Z,5.63
2018-11-27T13:28:21.854Z,5.63
2018-11-27T13:31:29.741Z,5.67
2018-11-27T13:34:35.241Z,5.52
2018-11-27T13:37:40.856Z,5.55
2018-11-27T13:40:46.328Z,5.63
2018-11-27T13:43:51.769Z,5.41
2018-11-27T13:46:58.215Z,5.41
2018-11-27T13:50:03.646Z,5.47
2018-11-27T13:53:09.023Z,5.30
2018-11-27T13:56:14.460Z,5.33
2018-11-27T13:59:19.951Z,5.38
2018-11-27T14:02:25.392Z,5.47
2018-11-27T14:05:31.251Z,5.18
2018-11-27T14:08:36.727Z,5.00
2018-11-27T14:11:42.160Z,4.92
2018-11-27T14:14:47.940Z,4.99
2018-11-27T14:17:55.283Z,4.97
2018-11-27T14:21:00.781Z,4.98
2018-11-27T14:24:06.483Z,5.01
2018-11-27T14:27:11.874Z,5.10
2018-11-27T14:30:20.076Z,5.11
2018-11-27T14:33:25.484Z,5.21
2018-11-27T14:36:31.040Z,5.15
2018-11-27T14:39:36.552Z,5.08
2018-11-27T14:45:46.318Z,5.12
2018-11-27T14:48:51.757Z,4.90
2018-11-27T14:51:57.176Z,4.91
2018-11-27T14:55:02.522Z,4.92
2018-11-27T14:58:08.105Z,4.97
2018-11-27T15:01:13.552Z,4.93
2018-11-27T15:04:18.972Z,5.01
2018-11-27T15:07:25.132Z,4.91
2018-11-27T15:10:30.584Z,4.98
2018-11-27T15:13:36.032Z,4.76
2018-11-27T15:16:41.513Z,4.81
2018-11-27T15:19:46.964Z,4.60
2018-11-27T15:22:52.804Z,4.74
2018-11-27T15:25:58.225Z,4.72
2018-11-27T15:29:03.793Z,4.63
2018-11-27T15:32:09.243Z,4.56
2018-11-27T15:35:15.250Z,4.56
2018-11-27T15:38:20.657Z,4.30
2018-11-27T15:41:26.032Z,4.11
2018-11-27T15:44:31.486Z,4.13
2018-11-27T15:47:37.105Z,4.10
2018-11-27T15:50:42.641Z,4.05
2018-11-27T15:53:48.099Z,3.74
2018-11-27T15:56:53.520Z,3.71
2018-11-27T15:59:59.015Z,3.64
2018-11-27T16:03:04.756Z,3.64
2018-11-27T16:06:10.332Z,3.65
2018-11-27T16:09:15.885Z,3.56
2018-11-27T16:12:21.304Z,3.51
2018-11-27T16:15:26.740Z,3.39
2018-11-27T16:18:32.177Z,3.34
2018-11-27T16:21:37.680Z,3.42
2018-11-27T16:24:43.131Z,3.42
2018-11-27T16:27:48.556Z,3.45
2018-11-27T16:30:54.637Z,3.36
2018-11-27T16:34:00.080Z,3.32
2018-11-27T16:37:06.867Z,3.35
2018-11-27T16:40:21.803Z,3.42
2018-11-27T16:43:27.260Z,3.25
2018-11-27T16:46:32.692Z,3.13
2018-11-27T16:49:38.071Z,3.17
2018-11-27T16:52:44.568Z,3.17
2018-11-27T16:55:50.943Z,3.07
2018-11-27T16:58:56.533Z,2.93
2018-11-27T17:02:02.033Z,2.89
2018-11-27T17:05:08.740Z,2.90
2018-11-27T17:08:14.772Z,2.91
2018-11-27T17:11:20.180Z,2.77
2018-11-27T17:14:25.569Z,2.79
2018-11-27T17:17:30.991Z,2.62
2018-11-27T17:20:38.592Z,2.72
2018-11-27T17:23:44.005Z,2.68
2018-11-27T17:26:49.364Z,2.68
2018-11-27T17:29:54.845Z,2.68
2018-11-27T17:33:00.806Z,2.70
2018-11-27T17:36:09.116Z,2.69
2018-11-27T17:39:14.662Z,2.68
2018-11-27T17:42:20.284Z,2.54
2018-11-27T17:45:26.405Z,2.54
2018-11-27T17:48:31.847Z,2.66
2018-11-27T17:51:37.290Z,2.72
2018-11-27T17:54:42.940Z,2.77
2018-11-27T17:57:48.334Z,2.72
2018-11-27T18:00:53.768Z,2.69
2018-11-27T18:03:59.161Z,2.43
2018-11-27T18:07:04.532Z,2.52
2018-11-27T18:10:11.540Z,2.42
2018-11-27T18:13:16.881Z,2.49
2018-11-27T18:16:22.439Z,2.48
2018-11-27T18:19:27.878Z,2.44
2018-11-27T18:22:33.405Z,2.41
2018-11-27T18:25:44.960Z,2.15
2018-11-27T18:28:50.322Z,2.16
2018-11-27T18:31:57.373Z,2.22
2018-11-27T18:35:02.756Z,2.21
2018-11-27T18:38:08.189Z,2.17
2018-11-27T18:41:13.712Z,2.21
2018-11-27T18:44:19.100Z,2.32
2018-11-27T18:47:24.595Z,2.16
2018-11-27T18:50:33.037Z,2.07
2018-11-27T18:53:38.416Z,2.10
2018-11-27T18:56:43.897Z,1.88
2018-11-27T18:59:49.262Z,1.87
2018-11-27T19:02:54.788Z,1.96
2018-11-27T19:06:00.240Z,1.98
2018-11-27T19:09:09.572Z,2.00
2018-11-27T19:12:15.132Z,1.97
2018-11-27T19:15:26.028Z,1.96
2018-11-27T19:18:31.462Z,1.95
2018-11-27T19:21:36.884Z,1.97
2018-11-27T19:24:42.349Z,1.95
2018-11-27T19:27:48.108Z,1.85
2018-11-27T19:30:53.544Z,1.84
2018-11-27T19:33:59.007Z,1.68
2018-11-27T19:37:04.369Z,1.61
2018-11-27T19:40:13.185Z,1.74
2018-11-27T19:43:18.670Z,1.48
2018-11-27T19:46:24.053Z,1.43
2018-11-27T19:49:29.624Z,1.59
2018-11-27T19:52:35.071Z,1.64
2018-11-27T19:55:40.631Z,1.53
2018-11-27T19:58:46.072Z,1.38
2018-11-27T20:01:51.505Z,1.51
2018-11-27T20:04:56.871Z,1.51
2018-11-27T20:08:02.304Z,1.55
2018-11-27T20:11:08.097Z,1.59
2018-11-27T20:14:13.536Z,1.60
2018-11-27T20:17:18.943Z,1.57
2018-11-27T20:20:27.900Z,1.56
2018-11-27T20:23:33.352Z,1.49
2018-11-27T20:26:38.825Z,1.34
2018-11-27T20:29:44.184Z,1.44
2018-11-27T20:33:00.406Z,1.48
2018-11-27T20:36:06.304Z,1.38
2018-11-27T20:39:11.800Z,1.19
2018-11-27T20:42:17.149Z,1.22
2018-11-27T20:45:24.067Z,1.23
2018-11-27T20:48:29.413Z,1.25
2018-11-27T20:51:34.784Z,1.36
2018-11-27T20:54:40.133Z,1.15
2018-11-27T20:58:00.604Z,1.16
2018-11-27T21:01:07.344Z,1.34
2018-11-27T21:04:12.680Z,1.30
2018-11-27T21:07:18.108Z,1.19
2018-11-27T21:10:23.557Z,1.26
2018-11-27T21:13:28.893Z,1.41
2018-11-27T21:16:34.341Z,1.49
2018-11-27T21:19:39.769Z,1.44
2018-11-27T21:22:45.489Z,1.48
2018-11-27T21:25:56.336Z,1.54
2018-11-27T21:28:56.535Z,1.37
2018-11-27T21:32:02.005Z,1.39
2018-11-27T21:35:09.876Z,1.37
2018-11-27T21:38:15.359Z,1.42
2018-11-27T21:41:20.801Z,1.22
2018-11-27T21:44:26.875Z,1.31
2018-11-27T21:47:32.423Z,1.37
2018-11-27T21:50:42.513Z,1.15
2018-11-27T21:53:47.900Z,1.21
2018-11-27T21:56:53.255Z,1.18
2018-11-27T21:59:58.691Z,1.15
2018-11-27T22:03:04.369Z,1.16
2018-11-27T22:06:09.828Z,1.25
2018-11-27T22:09:15.179Z,1.20
2018-11-27T22:12:20.616Z,1.21
2018-11-27T22:15:37.007Z,1.18
2018-11-27T22:18:42.368Z,1.18
2018-11-27T22:21:47.830Z,1.26
2018-11-27T22:24:53.263Z,1.28
2018-11-27T22:27:58.634Z,1.39
2018-11-27T22:31:04.186Z,1.33
2018-11-27T22:34:09.544Z,1.34
2018-11-27T22:37:16.125Z,1.46
2018-11-27T22:40:24.927Z,1.28
2018-11-27T22:43:30.389Z,1.33
2018-11-27T22:46:35.792Z,1.38
2018-11-27T22:49:41.149Z,1.37
2018-11-27T22:52:46.529Z,1.25
2018-11-27T22:55:51.919Z,1.24
2018-11-27T22:58:57.631Z,1.23
2018-11-27T23:02:03.388Z,1.22
2018-11-27T23:05:08.829Z,1.14
2018-11-27T23:08:14.248Z,1.13
2018-11-27T23:11:19.608Z,0.83
2018-11-27T23:14:25.612Z,0.94
2018-11-27T23:17:30.964Z,0.83
2018-11-27T23:20:36.665Z,0.94
2018-11-27T23:23:42.224Z,0.95
2018-11-27T23:26:47.586Z,0.99
2018-11-27T23:29:53.065Z,0.88
2018-11-27T23:32:58.468Z,0.88
2018-11-27T23:36:03.828Z,1.00
2018-11-27T23:39:09.389Z,0.92
2018-11-27T23:42:14.812Z,1.01
2018-11-27T23:45:24.296Z,0.92
2018-11-27T23:48:29.622Z,1.02
2018-11-27T23:51:35.073Z,0.99
2018-11-27T23:54:40.444Z,0.82
2018-11-27T23:57:46.188Z,0.71
